Aeroporto :
LOGIN :

Iscrizione | Disclaimer

   EN    FR    IT 

 










Sommario :    VFR   VFR Marginale   IFR   IFR Intensivo   IFR Molto Intensivo
Visibilità : 
Base nubi : 
>= 8 km
>= 3000ft
5 / 8 km
1000 / 3000 ft
1500m / 5 km
500 / 1000 ft
800 / 1500m
200 / 500 ft
< 800m
< 200 ft
Simboli :   Temporali  Nebbia  Neve Forte  Precipitazioni Forti  Vento > 20 kt
SIGMETs :   Varie  Temporali  Ghiacco  Turbolenza  Onda orograficha  Ceneri Vulcaniche







- Altitudine del aeroporto : 56 ft
- Codice IATA : BZR
- Carte del aeroporto


LFMU - Beziers / Vias

ULTIMO METAR :
  • 232200Z AUTO VRB03KT CAVOK 10/03 Q1023

METARs OBSOLETI :
  • 232130Z AUTO 32002KT CAVOK 11/04 Q1023
  • 232100Z AUTO VRB01KT CAVOK 12/04 Q1023
  • 232030Z AUTO 30003KT CAVOK 11/04 Q1023
  • 232000Z AUTO VRB02KT CAVOK 13/04 Q1023
  • 231930Z AUTO VRB01KT CAVOK 13/04 Q1023 NOSIG

TAF TAF LFMU
Valido dal 23 a 15 ore il 24 a 15 ore UTC


231400Z 2315/2415 17007KT CAVOK
BECMG 2316/2318 34010KT
BECMG 2318/2320 VRB03KT
BECMG 2412/2414 16010KT
ATIS : +33 4 67 90 88 88
Nessun NOTAM noto per questo aeroporto.



MetMap, La meteo Aeronautica in un colpo d'occhio ! - Copyright ORBIFLY Dicembre 2007 - Disclaimer

ORBIFLY MET'MAP TEAM :

Programmazione e sviluppo : Alexandra Zaïnal
Concezione e sviluppo : Baudouin d'Aumeries
Co-Programmazione e sviluppo : Marc-Olivier Méhu
Supporto tecnico e logistico : Manuel Goepfert
Aiuto per la traduzione : Arnaldo La Scala

Contatto : metmap@orbifly.com




FONTI E CREDITI :

   NOAA